Overview Statistics Trail Chart Weather Telemetry Raw packets
 

This is the latest recevied weather packets stored in our database for station/object K1RFS. If no packets are shown the sender has not sent any weather packets the latest 10 day(s).

<< 1 2 3 4 >>
Time Temp. Humidity Pressure Rain* Wind** Luminosity Snow
1788702390 18.33° C 38% 1003.1 hPa 0 mm - 15 W/m² -
1788702090 18.33° C 38% 1003.2 hPa 0 mm - 14 W/m² -
1788701786 18.33° C 39% 1003.1 hPa 0 mm - 13 W/m² -
1788701480 17.78° C 39% 1003.1 hPa 0 mm - 12 W/m² -
1788701175 17.78° C 39% 1003.1 hPa 0 mm - 10 W/m² -
1788700871 16.67° C 40% 1002.9 hPa 0 mm - 9 W/m² -
1788700567 16.67° C 41% 1003.1 hPa 0 mm - 7 W/m² -
1788700261 16.67° C 41% 1003 hPa 0 mm - 5 W/m² -
1788699955 16.67° C 42% 1002.9 hPa 0 mm - 4 W/m² -
1788699651 16.11° C 42% 1003 hPa 0 mm - 2 W/m² -
1788699374 15.56° C 44% 1002.8 hPa 0 mm - 1 W/m² -
1788699048 16.11° C 44% 1002.8 hPa 0 mm - 1 W/m² -
1788698744 16.11° C 44% 1002.8 hPa 0 mm - 0 W/m² -
1788698438 16.11° C 43% 1003.1 hPa 0 mm - 0 W/m² -
1788698137 16.11° C 42% 1002.9 hPa 0 mm - 0 W/m² -
1788697834 16.67° C 42% 1002.6 hPa 0 mm - 0 W/m² -
1788697532 16.67° C 42% 1003 hPa 0 mm - 0 W/m² -
1788697229 17.22° C 40% 1002.9 hPa 0 mm - 0 W/m² -
1788696925 16.67° C 40% 1002.5 hPa 0 mm - 0 W/m² -
1788696621 16.11° C 41% 1003.1 hPa 0 mm - 0 W/m² -
1788696315 15.56° C 44% 1002.9 hPa 0 mm - 0 W/m² -
1788696014 15.56° C 43% 1002.9 hPa 0 mm - 0 W/m² -
1788695714 16.11° C 42% 1002.9 hPa 0 mm - 0 W/m² -
1788695414 16.11° C 41% 1002.8 hPa 0 mm - 0 W/m² -
1788695108 16.67° C 40% 1003 hPa 0 mm - 0 W/m² -

* Rain latest hour (hover to see other rain measurements)
** Current wind speed in m/s (hover to see current wind gust speed)